Impacts METAR Board
IDs:

KSSF - San Antonio/Stinson, TX, US

Updated at: 1200 UTC 16 Jul 2019
Potential Impact None Slight Moderate High
Time 16/00Z 16/01Z 16/02Z 16/03Z 16/04Z 16/05Z 16/06Z 16/07Z 16/08Z 16/09Z 16/10Z 16/11Z 16/12Z
Temp96 93 88 87 85 83 82 80 79 79 79 80 79
Dewpt66 68 70 71 71 72 72 72 71 72 73 73 73
Altim29.84 29.84 29.86 29.88 29.90 29.92 29.93 29.93 29.94 29.94 29.95 29.97 29.97
VIS10 10 10 10 10 10 10 10 10 10 10 10 10
CIG-- -- -- -- -- -- -- -- -- 14 14 17 21
CoverCLRCLRCLRCLRCLRCLRCLRCLRCLRBKNOVCBKNBKN
FltCatVFRVFRVFRVFRVFRVFRVFRVFRVFRMVFRMVFRMVFRMVFR
WX--------------------------
WDir140120160150140140140140140130140160150
WSpd7 5 5 11 11 10 8 7 5 4 4 6 5
WGst-- -- -- -- -- -- -- -- -- -- -- -- --
Raw hourly METARs
KSSF 152353Z 14007KT 10SM CLR 36/19 A2984 RMK AO2 SLP091 T03560189 10361 20328 56013
KSSF 160053Z 12005KT 10SM CLR 34/20 A2984 RMK AO2 SLP092 T03390200
KSSF 160153Z 16005KT 10SM CLR 31/21 A2986 RMK AO2 SLP099 T03110211
KSSF 160253Z AUTO 15011KT 10SM CLR 31/22 A2988 RMK AO2 SLP106 T03060217 53014
KSSF 160353Z AUTO 14011KT 10SM CLR 29/22 A2990 RMK AO2 SLP112 T02940217
KSSF 160453Z AUTO 14010KT 10SM CLR 28/22 A2992 RMK AO2 SLP120 T02830222 403610256
KSSF 160553Z AUTO 14008KT 10SM CLR 28/22 A2993 RMK AO2 SLP122 T02780222 10356 20278 51017
KSSF 160653Z AUTO 14007KT 10SM CLR 27/22 A2993 RMK AO2 SLP121 T02670222
KSSF 160753Z AUTO 14005KT 10SM CLR 26/22 A2994 RMK AO2 SLP123 T02610217
KSSF 160853Z AUTO 13004KT 10SM BKN014 26/22 A2994 RMK AO2 SLP124 T02610222 53002
KSSF 160953Z AUTO 14004KT 10SM OVC014 26/23 A2995 RMK AO2 SLP128 T02610228
KSSF 161053Z AUTO 16006KT 10SM BKN017 BKN022 27/23 A2997 RMK AO2 SLP133 T02670228
KSSF 161204Z 15005KT 10SM SCT013 BKN021 26/23 A2997 RMK AO2 T02610228